Bedford, IN

6:00 AM EDT on June 29, 2017 (GMT -0400)
Wilson Park | | Change Station
Active Advisory: Flood Warning

Elev 646 ft 38.86 °N, 86.50 °W | Updated 38 seconds ago

Mostly Cloudy
Mostly Cloudy
68.5 °F
Feels Like 68.5 °F
N
0.0
Wind Variable Wind from SW
Gusts 0.0 mph

Today
High -- | Low -- °F
--% Chance of Precip.
Yesterday
High -- | Low -- °F
Precip. -- in
Pressure 29.96 in
Visibility 10.0 miles
Clouds Few 5000 ft
Scattered Clouds 6000 ft
Mostly Cloudy 7500 ft
Dew Point 59 °F
Humidity 71%
Rainfall 0.00 in
Snow Depth Not available.
6:23 AM 9:15 PM
Waxing Crescent, 34% visible
METAR KBMG 290953Z AUTO 20008KT 10SM FEW050 SCT060 BKN075 23/16 A2998 RMK AO2 SLP144 T02280156
Pressure 29.96 in
Visibility 10.0 miles
Clouds Few 5000 ft
Scattered Clouds 6000 ft
Mostly Cloudy 7500 ft
Dew Point 59 °F
Humidity 71%
Rainfall 0.00 in
Snow Depth Not available.
6:23 AM 9:15 PM
Waxing Crescent, 34% visible
METAR KBMG 290953Z AUTO 20008KT 10SM FEW050 SCT060 BKN075 23/16 A2998 RMK AO2 SLP144 T02280156

Get Your Daily Forecast Email!

Thanks for signing up!

Be on the lookout for a verification email in your inbox.

You'll start receiving severe weather alerts in your inbox..

×

10-Day Weather Forecast

Almanac

Astronomy

Jun. 29, 2017 Rise Set
Actual Time
Civil Twilight
Nautical Twilight
Astronomical Twilight
Moon
Length of Visible Light
Length of Day
Tomorrow will be .
, % of the Moon is Illuminated

Today's Extremes

State Highs State Lows

Community

WunderPhotos

Category 6

Welcome to Category 6. This is the collective home for Weather Underground's featured writeups by Dr. Jeff Masters (right), Bob Henson (left), Chris Burt, and other regular contributors.

Nearby

Air Quality

  Air Quality AQ Index Pollutant
Not available.

Snow Depth

Station Depth Elevation

Earthquake Activity

City Distance Mag. Time & Date
Minimum magnitude displayed is 2.5.

Coastal Water Temperatures

Place Temperature

Stations

Nearby Weather Stations

Station Location Temp. Windchill Dew Point Humidity Wind Precip. Elev Updated Type
                   

Watches & Warnings

Flood Warning
Issued: 11:23 AM EDT Jun. 28, 2017 – National Weather Service

The Flood Warning continues for
the muscatatuck river at Wheeler Hollow.
* Until Thursday afternoon.
* At 6:15 PM Tuesday the stage was 19.3 feet.
* Flood stage is 18.0 feet.
* Minor flooding is occurring and minor flooding is forecast.
* Forecast... the river will continue to fall to below flood stage by
tomorrow morning.
* At 20.0 feet... high water is noticed along the river. Flood waters
in a few backyards. A few roads are flooded.


Lat... Lon 3874 8591 3873 8605 3876 8618 3880 8615
      3878 8603 3878 8591